sensor_id;sensor_type;location;lat;lon;timestamp;temperature;humidity
66086;DHT22;52868;49.758;9.586;2022-09-09T00:04:26;20.20;62.20
66086;DHT22;52868;49.758;9.586;2022-09-09T00:09:48;20.20;63.50
66086;DHT22;52868;49.758;9.586;2022-09-09T00:12:34;20.10;64.00
66086;DHT22;52868;49.758;9.586;2022-09-09T00:15:11;20.10;63.90
66086;DHT22;52868;49.758;9.586;2022-09-09T00:20:26;20.10;64.50
66086;DHT22;52868;49.758;9.586;2022-09-09T00:28:26;20.20;64.20
66086;DHT22;52868;49.758;9.586;2022-09-09T00:30:52;20.20;64.50
66086;DHT22;52868;49.758;9.586;2022-09-09T00:33:20;20.20;64.50
66086;DHT22;52868;49.758;9.586;2022-09-09T00:35:56;20.20;64.60
66086;DHT22;52868;49.758;9.586;2022-09-09T00:40:54;20.20;64.60
66086;DHT22;52868;49.758;9.586;2022-09-09T00:57:23;20.10;65.20
66086;DHT22;52868;49.758;9.586;2022-09-09T01:05:46;20.10;65.00
66086;DHT22;52868;49.758;9.586;2022-09-09T01:11:04;20.10;64.90
66086;DHT22;52868;49.758;9.586;2022-09-09T01:13:33;20.00;64.90
66086;DHT22;52868;49.758;9.586;2022-09-09T01:16:01;20.00;65.00
66086;DHT22;52868;49.758;9.586;2022-09-09T01:18:37;20.00;64.90
66086;DHT22;52868;49.758;9.586;2022-09-09T01:21:30;20.00;64.70
66086;DHT22;52868;49.758;9.586;2022-09-09T01:24:31;20.00;64.80
66086;DHT22;52868;49.758;9.586;2022-09-09T01:26:58;20.00;64.90
66086;DHT22;52868;49.758;9.586;2022-09-09T01:29:24;19.90;64.90
66086;DHT22;52868;49.758;9.586;2022-09-09T01:34:36;19.80;65.00
66086;DHT22;52868;49.758;9.586;2022-09-09T01:37:07;19.80;64.90
66086;DHT22;52868;49.758;9.586;2022-09-09T01:39:36;19.80;64.90
66086;DHT22;52868;49.758;9.586;2022-09-09T01:42:03;19.90;65.00
66086;DHT22;52868;49.758;9.586;2022-09-09T01:44:29;19.80;65.40
66086;DHT22;52868;49.758;9.586;2022-09-09T01:46:55;19.80;65.20
66086;DHT22;52868;49.758;9.586;2022-09-09T01:49:21;19.80;65.20
66086;DHT22;52868;49.758;9.586;2022-09-09T01:51:51;19.80;65.20
66086;DHT22;52868;49.758;9.586;2022-09-09T01:54:18;19.80;65.40
66086;DHT22;52868;49.758;9.586;2022-09-09T01:56:54;19.80;65.60
66086;DHT22;52868;49.758;9.586;2022-09-09T02:04:31;19.80;65.60
66086;DHT22;52868;49.758;9.586;2022-09-09T02:07:00;19.80;65.60
66086;DHT22;52868;49.758;9.586;2022-09-09T02:09:26;19.80;65.60
66086;DHT22;52868;49.758;9.586;2022-09-09T02:12:09;19.80;65.60
66086;DHT22;52868;49.758;9.586;2022-09-09T02:14:41;19.80;65.70
66086;DHT22;52868;49.758;9.586;2022-09-09T02:17:11;19.80;65.60
66086;DHT22;52868;49.758;9.586;2022-09-09T02:19:49;19.90;65.70
66086;DHT22;52868;49.758;9.586;2022-09-09T02:22:20;19.80;65.90
66086;DHT22;52868;49.758;9.586;2022-09-09T02:24:47;19.80;66.00
66086;DHT22;52868;49.758;9.586;2022-09-09T02:27:16;19.70;66.30
66086;DHT22;52868;49.758;9.586;2022-09-09T02:29:44;19.80;66.10
66086;DHT22;52868;49.758;9.586;2022-09-09T02:32:15;19.70;66.10
66086;DHT22;52868;49.758;9.586;2022-09-09T02:34:45;19.80;66.20
66086;DHT22;52868;49.758;9.586;2022-09-09T02:37:13;19.80;66.30
66086;DHT22;52868;49.758;9.586;2022-09-09T02:39:40;19.80;66.20
66086;DHT22;52868;49.758;9.586;2022-09-09T02:42:06;19.80;66.30
66086;DHT22;52868;49.758;9.586;2022-09-09T02:44:33;19.80;66.30
66086;DHT22;52868;49.758;9.586;2022-09-09T02:52:18;19.70;66.60
66086;DHT22;52868;49.758;9.586;2022-09-09T02:54:48;19.70;66.40
66086;DHT22;52868;49.758;9.586;2022-09-09T02:57:22;19.80;66.20
66086;DHT22;52868;49.758;9.586;2022-09-09T02:59:49;19.80;66.10
66086;DHT22;52868;49.758;9.586;2022-09-09T03:02:15;19.80;66.10
66086;DHT22;52868;49.758;9.586;2022-09-09T03:04:41;19.70;66.20
66086;DHT22;52868;49.758;9.586;2022-09-09T03:07:13;19.70;66.40
66086;DHT22;52868;49.758;9.586;2022-09-09T03:09:38;19.70;66.40
66086;DHT22;52868;49.758;9.586;2022-09-09T03:12:04;19.70;66.50
66086;DHT22;52868;49.758;9.586;2022-09-09T03:14:30;19.70;66.50
66086;DHT22;52868;49.758;9.586;2022-09-09T03:16:56;19.70;66.40
66086;DHT22;52868;49.758;9.586;2022-09-09T03:19:26;19.70;66.30
66086;DHT22;52868;49.758;9.586;2022-09-09T03:21:53;19.70;66.20
66086;DHT22;52868;49.758;9.586;2022-09-09T03:24:19;19.70;66.40
66086;DHT22;52868;49.758;9.586;2022-09-09T03:26:45;19.60;66.60
66086;DHT22;52868;49.758;9.586;2022-09-09T03:29:12;19.60;66.60
66086;DHT22;52868;49.758;9.586;2022-09-09T03:31:38;19.50;66.80
66086;DHT22;52868;49.758;9.586;2022-09-09T03:34:03;19.60;66.70
66086;DHT22;52868;49.758;9.586;2022-09-09T03:36:29;19.60;66.70
66086;DHT22;52868;49.758;9.586;2022-09-09T03:38:55;19.70;66.40
66086;DHT22;52868;49.758;9.586;2022-09-09T03:41:22;19.70;66.60
66086;DHT22;52868;49.758;9.586;2022-09-09T03:43:52;19.60;66.70
66086;DHT22;52868;49.758;9.586;2022-09-09T03:46:19;19.50;67.10
66086;DHT22;52868;49.758;9.586;2022-09-09T03:48:45;19.50;67.30
66086;DHT22;52868;49.758;9.586;2022-09-09T03:51:11;19.50;67.20
66086;DHT22;52868;49.758;9.586;2022-09-09T03:53:37;19.60;66.80
66086;DHT22;52868;49.758;9.586;2022-09-09T03:56:04;19.60;66.70
66086;DHT22;52868;49.758;9.586;2022-09-09T03:58:33;19.70;66.70
66086;DHT22;52868;49.758;9.586;2022-09-09T04:01:01;19.60;66.60
66086;DHT22;52868;49.758;9.586;2022-09-09T04:03:28;19.70;66.60
66086;DHT22;52868;49.758;9.586;2022-09-09T04:05:55;19.70;66.40
66086;DHT22;52868;49.758;9.586;2022-09-09T04:08:21;19.70;66.50
66086;DHT22;52868;49.758;9.586;2022-09-09T04:10:48;19.70;66.40
66086;DHT22;52868;49.758;9.586;2022-09-09T04:13:15;19.70;66.40
66086;DHT22;52868;49.758;9.586;2022-09-09T04:15:43;19.60;66.40
66086;DHT22;52868;49.758;9.586;2022-09-09T04:18:09;19.60;66.50
66086;DHT22;52868;49.758;9.586;2022-09-09T04:20:34;19.70;66.50
66086;DHT22;52868;49.758;9.586;2022-09-09T04:23:01;19.60;66.70
66086;DHT22;52868;49.758;9.586;2022-09-09T04:25:26;19.60;66.70
66086;DHT22;52868;49.758;9.586;2022-09-09T04:27:56;19.50;67.00
66086;DHT22;52868;49.758;9.586;2022-09-09T04:30:22;19.30;67.40
66086;DHT22;52868;49.758;9.586;2022-09-09T04:32:48;19.30;67.40
66086;DHT22;52868;49.758;9.586;2022-09-09T04:35:14;19.30;67.30
66086;DHT22;52868;49.758;9.586;2022-09-09T04:37:40;19.40;67.10
66086;DHT22;52868;49.758;9.586;2022-09-09T04:40:06;19.40;66.90
66086;DHT22;52868;49.758;9.586;2022-09-09T04:42:36;19.50;66.80
66086;DHT22;52868;49.758;9.586;2022-09-09T04:45:02;19.50;66.40
66086;DHT22;52868;49.758;9.586;2022-09-09T04:47:28;19.60;66.20
66086;DHT22;52868;49.758;9.586;2022-09-09T04:49:54;19.60;66.00
66086;DHT22;52868;49.758;9.586;2022-09-09T04:52:20;19.60;66.00
66086;DHT22;52868;49.758;9.586;2022-09-09T04:54:46;19.50;66.00
66086;DHT22;52868;49.758;9.586;2022-09-09T04:57:12;19.60;66.00
66086;DHT22;52868;49.758;9.586;2022-09-09T04:59:37;19.60;65.90
66086;DHT22;52868;49.758;9.586;2022-09-09T05:02:04;19.60;65.80
66086;DHT22;52868;49.758;9.586;2022-09-09T05:04:30;19.50;66.00
66086;DHT22;52868;49.758;9.586;2022-09-09T05:06:56;19.50;66.00
66086;DHT22;52868;49.758;9.586;2022-09-09T05:09:21;19.50;66.10
66086;DHT22;52868;49.758;9.586;2022-09-09T05:11:49;19.40;66.30
66086;DHT22;52868;49.758;9.586;2022-09-09T05:14:15;19.40;66.40
66086;DHT22;52868;49.758;9.586;2022-09-09T05:16:41;19.40;66.40
66086;DHT22;52868;49.758;9.586;2022-09-09T05:19:09;19.50;66.30
66086;DHT22;52868;49.758;9.586;2022-09-09T05:21:35;19.40;66.40
66086;DHT22;52868;49.758;9.586;2022-09-09T05:24:01;19.50;66.20
66086;DHT22;52868;49.758;9.586;2022-09-09T05:26:27;19.60;66.10
66086;DHT22;52868;49.758;9.586;2022-09-09T05:28:54;19.60;66.00
66086;DHT22;52868;49.758;9.586;2022-09-09T05:31:21;19.60;66.10
66086;DHT22;52868;49.758;9.586;2022-09-09T05:33:47;19.60;66.20
66086;DHT22;52868;49.758;9.586;2022-09-09T05:36:19;19.70;66.10
66086;DHT22;52868;49.758;9.586;2022-09-09T05:38:45;19.70;66.10
66086;DHT22;52868;49.758;9.586;2022-09-09T05:41:12;19.70;66.10
66086;DHT22;52868;49.758;9.586;2022-09-09T05:43:40;19.70;66.10
66086;DHT22;52868;49.758;9.586;2022-09-09T05:46:10;19.70;66.20
66086;DHT22;52868;49.758;9.586;2022-09-09T05:48:46;19.70;66.10
66086;DHT22;52868;49.758;9.586;2022-09-09T05:51:19;19.70;66.10
66086;DHT22;52868;49.758;9.586;2022-09-09T05:53:47;19.80;66.00
66086;DHT22;52868;49.758;9.586;2022-09-09T05:56:23;19.80;66.00
66086;DHT22;52868;49.758;9.586;2022-09-09T05:58:51;19.80;66.00
66086;DHT22;52868;49.758;9.586;2022-09-09T06:03:48;19.80;65.90
66086;DHT22;52868;49.758;9.586;2022-09-09T06:06:19;19.80;65.80
66086;DHT22;52868;49.758;9.586;2022-09-09T06:08:50;19.80;65.80
66086;DHT22;52868;49.758;9.586;2022-09-09T06:11:25;19.80;65.70
66086;DHT22;52868;49.758;9.586;2022-09-09T06:13:52;19.80;65.60
66086;DHT22;52868;49.758;9.586;2022-09-09T06:16:22;19.90;65.60
66086;DHT22;52868;49.758;9.586;2022-09-09T06:18:52;19.80;65.50
66086;DHT22;52868;49.758;9.586;2022-09-09T06:21:24;19.90;65.50
66086;DHT22;52868;49.758;9.586;2022-09-09T06:23:50;19.90;65.60
66086;DHT22;52868;49.758;9.586;2022-09-09T06:26:23;19.90;65.40
66086;DHT22;52868;49.758;9.586;2022-09-09T06:28:50;19.90;65.30
66086;DHT22;52868;49.758;9.586;2022-09-09T06:31:19;19.90;65.30
66086;DHT22;52868;49.758;9.586;2022-09-09T06:33:49;20.00;65.30
66086;DHT22;52868;49.758;9.586;2022-09-09T06:36:18;19.90;65.40
66086;DHT22;52868;49.758;9.586;2022-09-09T06:38:44;20.00;65.40
66086;DHT22;52868;49.758;9.586;2022-09-09T06:41:12;20.00;65.40
66086;DHT22;52868;49.758;9.586;2022-09-09T06:43:38;20.00;65.40
66086;DHT22;52868;49.758;9.586;2022-09-09T06:46:06;20.00;65.40
66086;DHT22;52868;49.758;9.586;2022-09-09T06:48:33;20.00;65.60
66086;DHT22;52868;49.758;9.586;2022-09-09T06:51:08;19.90;65.70
66086;DHT22;52868;49.758;9.586;2022-09-09T06:53:35;20.00;65.60
66086;DHT22;52868;49.758;9.586;2022-09-09T06:58:40;20.00;65.60
66086;DHT22;52868;49.758;9.586;2022-09-09T07:01:14;20.10;65.50
66086;DHT22;52868;49.758;9.586;2022-09-09T07:03:41;20.10;65.50
66086;DHT22;52868;49.758;9.586;2022-09-09T07:06:15;20.10;65.40
66086;DHT22;52868;49.758;9.586;2022-09-09T07:08:43;20.10;65.50
66086;DHT22;52868;49.758;9.586;2022-09-09T07:11:09;20.20;65.50
66086;DHT22;52868;49.758;9.586;2022-09-09T07:13:36;20.10;65.50
66086;DHT22;52868;49.758;9.586;2022-09-09T07:16:12;20.10;65.50
66086;DHT22;52868;49.758;9.586;2022-09-09T07:18:39;20.10;65.40
66086;DHT22;52868;49.758;9.586;2022-09-09T07:21:05;20.20;65.50
66086;DHT22;52868;49.758;9.586;2022-09-09T07:23:32;20.20;65.40
66086;DHT22;52868;49.758;9.586;2022-09-09T07:25:58;20.20;65.40
66086;DHT22;52868;49.758;9.586;2022-09-09T07:28:24;20.20;65.40
66086;DHT22;52868;49.758;9.586;2022-09-09T07:30:58;20.30;65.40
66086;DHT22;52868;49.758;9.586;2022-09-09T07:33:25;20.40;65.30
66086;DHT22;52868;49.758;9.586;2022-09-09T07:35:52;20.40;65.30
66086;DHT22;52868;49.758;9.586;2022-09-09T07:38:19;20.40;65.20
66086;DHT22;52868;49.758;9.586;2022-09-09T07:40:46;20.40;65.30
66086;DHT22;52868;49.758;9.586;2022-09-09T07:43:11;20.40;65.40
66086;DHT22;52868;49.758;9.586;2022-09-09T07:45:37;20.50;65.30
66086;DHT22;52868;49.758;9.586;2022-09-09T07:48:03;20.50;65.30
66086;DHT22;52868;49.758;9.586;2022-09-09T07:50:29;20.60;65.30
66086;DHT22;52868;49.758;9.586;2022-09-09T07:52:55;20.60;65.40
66086;DHT22;52868;49.758;9.586;2022-09-09T07:55:21;20.70;65.30
66086;DHT22;52868;49.758;9.586;2022-09-09T07:57:50;20.70;65.30
66086;DHT22;52868;49.758;9.586;2022-09-09T08:00:16;20.70;65.20
66086;DHT22;52868;49.758;9.586;2022-09-09T08:02:42;20.70;65.10
66086;DHT22;52868;49.758;9.586;2022-09-09T08:05:07;20.70;65.20
66086;DHT22;52868;49.758;9.586;2022-09-09T08:07:34;20.80;65.00
66086;DHT22;52868;49.758;9.586;2022-09-09T08:09:59;20.90;64.70
66086;DHT22;52868;49.758;9.586;2022-09-09T08:12:25;21.00;64.50
66086;DHT22;52868;49.758;9.586;2022-09-09T08:14:51;21.20;64.40
66086;DHT22;52868;49.758;9.586;2022-09-09T08:17:17;21.30;64.10
66086;DHT22;52868;49.758;9.586;2022-09-09T08:19:43;21.30;63.90
66086;DHT22;52868;49.758;9.586;2022-09-09T08:22:10;21.40;63.80
66086;DHT22;52868;49.758;9.586;2022-09-09T08:24:35;21.60;63.70
66086;DHT22;52868;49.758;9.586;2022-09-09T08:27:01;21.70;63.50
66086;DHT22;52868;49.758;9.586;2022-09-09T08:29:27;21.70;63.30
66086;DHT22;52868;49.758;9.586;2022-09-09T08:31:55;21.60;63.50
66086;DHT22;52868;49.758;9.586;2022-09-09T08:34:23;21.60;63.50
66086;DHT22;52868;49.758;9.586;2022-09-09T08:36:49;21.50;63.60
66086;DHT22;52868;49.758;9.586;2022-09-09T08:39:18;21.50;63.40
66086;DHT22;52868;49.758;9.586;2022-09-09T08:52:29;21.40;63.40
66086;DHT22;52868;49.758;9.586;2022-09-09T08:55:03;21.50;63.50
66086;DHT22;52868;49.758;9.586;2022-09-09T08:57:30;21.50;63.50
66086;DHT22;52868;49.758;9.586;2022-09-09T08:59:58;21.70;63.30
66086;DHT22;52868;49.758;9.586;2022-09-09T09:05:36;21.90;62.90
66086;DHT22;52868;49.758;9.586;2022-09-09T09:10:48;21.90;62.80
66086;DHT22;52868;49.758;9.586;2022-09-09T09:13:34;21.90;62.70
66086;DHT22;52868;49.758;9.586;2022-09-09T09:18:57;21.90;62.60
66086;DHT22;52868;49.758;9.586;2022-09-09T09:21:45;21.90;62.70
66086;DHT22;52868;49.758;9.586;2022-09-09T09:24:18;22.00;62.60
66086;DHT22;52868;49.758;9.586;2022-09-09T09:26:44;21.90;62.30
66086;DHT22;52868;49.758;9.586;2022-09-09T09:29:12;21.90;62.20
66086;DHT22;52868;49.758;9.586;2022-09-09T09:31:38;22.00;62.20
66086;DHT22;52868;49.758;9.586;2022-09-09T09:34:04;22.00;62.20
66086;DHT22;52868;49.758;9.586;2022-09-09T09:36:53;22.00;62.20
66086;DHT22;52868;49.758;9.586;2022-09-09T09:39:25;22.00;62.00
66086;DHT22;52868;49.758;9.586;2022-09-09T09:41:52;22.00;61.00
66086;DHT22;52868;49.758;9.586;2022-09-09T09:44:29;22.00;61.30
66086;DHT22;52868;49.758;9.586;2022-09-09T09:47:16;22.10;61.00
66086;DHT22;52868;49.758;9.586;2022-09-09T09:49:57;22.10;61.00
66086;DHT22;52868;49.758;9.586;2022-09-09T09:52:26;22.10;61.10
66086;DHT22;52868;49.758;9.586;2022-09-09T09:54:55;22.10;61.00
66086;DHT22;52868;49.758;9.586;2022-09-09T09:57:27;22.10;61.20
66086;DHT22;52868;49.758;9.586;2022-09-09T10:00:21;22.00;61.60
66086;DHT22;52868;49.758;9.586;2022-09-09T10:02:48;22.00;61.80
66086;DHT22;52868;49.758;9.586;2022-09-09T10:07:45;21.80;62.50
66086;DHT22;52868;49.758;9.586;2022-09-09T10:10:26;21.80;62.80
66086;DHT22;52868;49.758;9.586;2022-09-09T10:13:26;21.70;63.10
66086;DHT22;52868;49.758;9.586;2022-09-09T10:19:16;21.60;63.80
66086;DHT22;52868;49.758;9.586;2022-09-09T10:21:56;21.50;64.80
66086;DHT22;52868;49.758;9.586;2022-09-09T10:27:47;21.40;65.20
66086;DHT22;52868;49.758;9.586;2022-09-09T10:30:23;21.40;65.30
66086;DHT22;52868;49.758;9.586;2022-09-09T10:33:37;21.30;65.40
66086;DHT22;52868;49.758;9.586;2022-09-09T10:36:30;21.30;64.80
66086;DHT22;52868;49.758;9.586;2022-09-09T10:39:05;21.30;64.90
66086;DHT22;52868;49.758;9.586;2022-09-09T10:44:29;21.40;65.20
66086;DHT22;52868;49.758;9.586;2022-09-09T10:52:31;21.60;64.40
66086;DHT22;52868;49.758;9.586;2022-09-09T10:57:42;21.60;64.40
66086;DHT22;52868;49.758;9.586;2022-09-09T11:00:22;21.70;64.30
66086;DHT22;52868;49.758;9.586;2022-09-09T11:02:49;21.80;64.30
66086;DHT22;52868;49.758;9.586;2022-09-09T11:05:34;21.80;64.50
66086;DHT22;52868;49.758;9.586;2022-09-09T11:08:23;21.80;64.20
66086;DHT22;52868;49.758;9.586;2022-09-09T11:11:03;21.90;64.30
66086;DHT22;52868;49.758;9.586;2022-09-09T11:13:35;21.90;64.00
66086;DHT22;52868;49.758;9.586;2022-09-09T11:18:39;22.00;64.30
66086;DHT22;52868;49.758;9.586;2022-09-09T11:21:10;22.00;63.90
66086;DHT22;52868;49.758;9.586;2022-09-09T11:23:44;22.10;64.20
66086;DHT22;52868;49.758;9.586;2022-09-09T11:26:17;22.10;64.20
66086;DHT22;52868;49.758;9.586;2022-09-09T11:31:53;22.20;63.90
66086;DHT22;52868;49.758;9.586;2022-09-09T11:34:33;22.20;63.70
66086;DHT22;52868;49.758;9.586;2022-09-09T11:39:47;22.30;63.20
66086;DHT22;52868;49.758;9.586;2022-09-09T11:42:23;22.30;62.90
66086;DHT22;52868;49.758;9.586;2022-09-09T11:44:49;22.30;62.50
66086;DHT22;52868;49.758;9.586;2022-09-09T11:49:51;22.40;62.00
66086;DHT22;52868;49.758;9.586;2022-09-09T11:52:42;22.40;60.30
66086;DHT22;52868;49.758;9.586;2022-09-09T11:55:31;22.40;60.40
66086;DHT22;52868;49.758;9.586;2022-09-09T11:58:02;22.40;60.50
66086;DHT22;52868;49.758;9.586;2022-09-09T12:06:15;22.50;60.20
66086;DHT22;52868;49.758;9.586;2022-09-09T12:08:45;22.50;60.10
66086;DHT22;52868;49.758;9.586;2022-09-09T12:11:12;22.50;60.10
66086;DHT22;52868;49.758;9.586;2022-09-09T12:13:56;22.50;60.10
66086;DHT22;52868;49.758;9.586;2022-09-09T12:16:33;22.60;59.70
66086;DHT22;52868;49.758;9.586;2022-09-09T12:22:22;22.60;59.20
66086;DHT22;52868;49.758;9.586;2022-09-09T12:25:08;22.60;59.00
66086;DHT22;52868;49.758;9.586;2022-09-09T12:27:45;22.60;58.80
66086;DHT22;52868;49.758;9.586;2022-09-09T12:30:15;22.60;57.60
66086;DHT22;52868;49.758;9.586;2022-09-09T12:32:41;22.60;58.00
66086;DHT22;52868;49.758;9.586;2022-09-09T12:35:23;22.60;58.00
66086;DHT22;52868;49.758;9.586;2022-09-09T12:37:54;22.60;57.70
66086;DHT22;52868;49.758;9.586;2022-09-09T12:42:49;22.60;58.00
66086;DHT22;52868;49.758;9.586;2022-09-09T12:45:23;22.60;58.00
66086;DHT22;52868;49.758;9.586;2022-09-09T12:48:05;22.70;57.50
66086;DHT22;52868;49.758;9.586;2022-09-09T12:50:36;22.70;57.70
66086;DHT22;52868;49.758;9.586;2022-09-09T12:53:24;22.70;57.40
66086;DHT22;52868;49.758;9.586;2022-09-09T12:55:57;22.70;57.40
66086;DHT22;52868;49.758;9.586;2022-09-09T12:58:24;22.70;57.20
66086;DHT22;52868;49.758;9.586;2022-09-09T13:00:55;22.70;57.10
66086;DHT22;52868;49.758;9.586;2022-09-09T13:03:22;22.70;57.30
66086;DHT22;52868;49.758;9.586;2022-09-09T13:05:49;22.70;57.20
66086;DHT22;52868;49.758;9.586;2022-09-09T13:08:16;22.70;57.20
66086;DHT22;52868;49.758;9.586;2022-09-09T13:13:24;22.80;57.00
66086;DHT22;52868;49.758;9.586;2022-09-09T13:15:56;22.80;56.70
66086;DHT22;52868;49.758;9.586;2022-09-09T13:18:29;22.80;56.60
66086;DHT22;52868;49.758;9.586;2022-09-09T13:20:55;22.80;56.60
66086;DHT22;52868;49.758;9.586;2022-09-09T13:23:26;22.80;56.50
66086;DHT22;52868;49.758;9.586;2022-09-09T13:25:58;22.80;56.20
66086;DHT22;52868;49.758;9.586;2022-09-09T13:28:28;22.80;56.00
66086;DHT22;52868;49.758;9.586;2022-09-09T13:38:24;22.80;55.00
66086;DHT22;52868;49.758;9.586;2022-09-09T13:41:04;22.80;55.30
66086;DHT22;52868;49.758;9.586;2022-09-09T13:43:34;22.80;54.60
66086;DHT22;52868;49.758;9.586;2022-09-09T13:46:30;22.80;55.00
66086;DHT22;52868;49.758;9.586;2022-09-09T13:51:39;22.80;54.70
66086;DHT22;52868;49.758;9.586;2022-09-09T13:54:06;22.80;54.40
66086;DHT22;52868;49.758;9.586;2022-09-09T13:56:36;22.90;54.10
66086;DHT22;52868;49.758;9.586;2022-09-09T13:59:03;22.90;53.70
66086;DHT22;52868;49.758;9.586;2022-09-09T14:01:29;22.90;53.90
66086;DHT22;52868;49.758;9.586;2022-09-09T14:03:55;22.90;53.60
66086;DHT22;52868;49.758;9.586;2022-09-09T14:06:21;22.80;53.70
66086;DHT22;52868;49.758;9.586;2022-09-09T14:08:50;22.90;53.80
66086;DHT22;52868;49.758;9.586;2022-09-09T14:11:17;22.80;53.60
66086;DHT22;52868;49.758;9.586;2022-09-09T14:13:43;22.80;53.80
66086;DHT22;52868;49.758;9.586;2022-09-09T14:16:08;22.80;54.30
66086;DHT22;52868;49.758;9.586;2022-09-09T14:18:35;22.80;54.70
66086;DHT22;52868;49.758;9.586;2022-09-09T14:21:00;22.80;54.70
66086;DHT22;52868;49.758;9.586;2022-09-09T14:23:28;22.80;54.60
66086;DHT22;52868;49.758;9.586;2022-09-09T14:25:54;22.80;54.50
66086;DHT22;52868;49.758;9.586;2022-09-09T14:28:20;22.70;54.40
66086;DHT22;52868;49.758;9.586;2022-09-09T14:30:46;22.70;54.50
66086;DHT22;52868;49.758;9.586;2022-09-09T14:33:14;22.70;53.90
66086;DHT22;52868;49.758;9.586;2022-09-09T14:35:40;22.70;54.00
66086;DHT22;52868;49.758;9.586;2022-09-09T14:38:07;22.60;54.30
66086;DHT22;52868;49.758;9.586;2022-09-09T14:40:34;22.60;54.20
66086;DHT22;52868;49.758;9.586;2022-09-09T14:43:00;22.50;54.40
66086;DHT22;52868;49.758;9.586;2022-09-09T14:45:26;22.50;54.30
66086;DHT22;52868;49.758;9.586;2022-09-09T14:47:52;22.50;54.40
66086;DHT22;52868;49.758;9.586;2022-09-09T14:50:19;22.50;54.50
66086;DHT22;52868;49.758;9.586;2022-09-09T14:52:44;22.50;54.40
66086;DHT22;52868;49.758;9.586;2022-09-09T14:55:10;22.40;54.50
66086;DHT22;52868;49.758;9.586;2022-09-09T14:57:36;22.50;54.70
66086;DHT22;52868;49.758;9.586;2022-09-09T15:00:04;22.40;54.90
66086;DHT22;52868;49.758;9.586;2022-09-09T15:02:31;22.40;54.90
66086;DHT22;52868;49.758;9.586;2022-09-09T15:04:56;22.40;55.10
66086;DHT22;52868;49.758;9.586;2022-09-09T15:07:26;22.40;55.30
66086;DHT22;52868;49.758;9.586;2022-09-09T15:09:53;22.40;55.50
66086;DHT22;52868;49.758;9.586;2022-09-09T15:12:19;22.40;55.70
66086;DHT22;52868;49.758;9.586;2022-09-09T15:14:46;22.40;55.70
66086;DHT22;52868;49.758;9.586;2022-09-09T15:17:12;22.40;55.80
66086;DHT22;52868;49.758;9.586;2022-09-09T15:19:38;22.40;55.80
66086;DHT22;52868;49.758;9.586;2022-09-09T15:22:08;22.40;55.70
66086;DHT22;52868;49.758;9.586;2022-09-09T15:24:34;22.40;55.70
66086;DHT22;52868;49.758;9.586;2022-09-09T15:27:01;22.50;55.90
66086;DHT22;52868;49.758;9.586;2022-09-09T15:29:27;22.40;55.90
66086;DHT22;52868;49.758;9.586;2022-09-09T15:31:56;22.40;56.50
66086;DHT22;52868;49.758;9.586;2022-09-09T15:34:22;22.40;56.70
66086;DHT22;52868;49.758;9.586;2022-09-09T15:36:47;22.40;56.90
66086;DHT22;52868;49.758;9.586;2022-09-09T15:39:17;22.40;56.90
66086;DHT22;52868;49.758;9.586;2022-09-09T15:41:44;22.40;57.10
66086;DHT22;52868;49.758;9.586;2022-09-09T15:44:11;22.30;56.90
66086;DHT22;52868;49.758;9.586;2022-09-09T15:46:46;22.40;56.50
66086;DHT22;52868;49.758;9.586;2022-09-09T15:49:24;22.40;56.10
66086;DHT22;52868;49.758;9.586;2022-09-09T15:51:56;22.30;56.00
66086;DHT22;52868;49.758;9.586;2022-09-09T15:54:25;22.30;55.30
66086;DHT22;52868;49.758;9.586;2022-09-09T15:57:02;22.30;55.50
66086;DHT22;52868;49.758;9.586;2022-09-09T15:59:30;22.30;55.70
66086;DHT22;52868;49.758;9.586;2022-09-09T16:01:56;22.30;55.80
66086;DHT22;52868;49.758;9.586;2022-09-09T16:04:23;22.30;55.60
66086;DHT22;52868;49.758;9.586;2022-09-09T16:07:03;22.30;55.60
66086;DHT22;52868;49.758;9.586;2022-09-09T16:09:29;22.30;55.50
66086;DHT22;52868;49.758;9.586;2022-09-09T16:12:00;22.30;55.60
66086;DHT22;52868;49.758;9.586;2022-09-09T16:14:31;22.30;55.60
66086;DHT22;52868;49.758;9.586;2022-09-09T16:16:59;22.30;55.40
66086;DHT22;52868;49.758;9.586;2022-09-09T16:19:25;22.30;55.30
66086;DHT22;52868;49.758;9.586;2022-09-09T16:21:51;22.20;55.40
66086;DHT22;52868;49.758;9.586;2022-09-09T16:24:18;22.20;55.50
66086;DHT22;52868;49.758;9.586;2022-09-09T16:26:49;22.20;55.40
66086;DHT22;52868;49.758;9.586;2022-09-09T16:29:15;22.20;55.40
66086;DHT22;52868;49.758;9.586;2022-09-09T16:31:43;22.20;55.50
66086;DHT22;52868;49.758;9.586;2022-09-09T16:34:09;22.10;55.60
66086;DHT22;52868;49.758;9.586;2022-09-09T16:36:36;22.20;55.70
66086;DHT22;52868;49.758;9.586;2022-09-09T16:39:06;22.10;55.80
66086;DHT22;52868;49.758;9.586;2022-09-09T16:41:34;22.10;55.90
66086;DHT22;52868;49.758;9.586;2022-09-09T16:44:02;22.10;55.90
66086;DHT22;52868;49.758;9.586;2022-09-09T16:46:30;22.10;56.10
66086;DHT22;52868;49.758;9.586;2022-09-09T16:48:57;22.10;56.10
66086;DHT22;52868;49.758;9.586;2022-09-09T16:51:32;22.10;56.30
66086;DHT22;52868;49.758;9.586;2022-09-09T16:53:59;22.00;56.40
66086;DHT22;52868;49.758;9.586;2022-09-09T16:56:27;22.00;56.50
66086;DHT22;52868;49.758;9.586;2022-09-09T16:58:59;22.00;56.60
66086;DHT22;52868;49.758;9.586;2022-09-09T17:01:29;22.00;56.70
66086;DHT22;52868;49.758;9.586;2022-09-09T17:03:58;22.00;56.90
66086;DHT22;52868;49.758;9.586;2022-09-09T17:06:24;22.00;57.80
66086;DHT22;52868;49.758;9.586;2022-09-09T17:08:57;22.00;58.50
66086;DHT22;52868;49.758;9.586;2022-09-09T17:11:24;21.90;58.90
66086;DHT22;52868;49.758;9.586;2022-09-09T17:13:51;21.80;58.70
66086;DHT22;52868;49.758;9.586;2022-09-09T17:16:18;21.80;58.80
66086;DHT22;52868;49.758;9.586;2022-09-09T17:18:47;21.80;58.90
66086;DHT22;52868;49.758;9.586;2022-09-09T17:21:15;21.80;59.10
66086;DHT22;52868;49.758;9.586;2022-09-09T17:23:44;21.80;59.50
66086;DHT22;52868;49.758;9.586;2022-09-09T17:26:13;21.70;59.50
66086;DHT22;52868;49.758;9.586;2022-09-09T17:28:40;21.70;59.50
66086;DHT22;52868;49.758;9.586;2022-09-09T17:31:07;21.70;59.70
66086;DHT22;52868;49.758;9.586;2022-09-09T17:33:35;21.70;59.60
66086;DHT22;52868;49.758;9.586;2022-09-09T17:36:07;21.70;59.70
66086;DHT22;52868;49.758;9.586;2022-09-09T17:38:33;21.70;59.70
66086;DHT22;52868;49.758;9.586;2022-09-09T17:43:40;21.60;59.50
66086;DHT22;52868;49.758;9.586;2022-09-09T17:46:12;21.60;59.60
66086;DHT22;52868;49.758;9.586;2022-09-09T17:48:39;21.60;59.60
66086;DHT22;52868;49.758;9.586;2022-09-09T17:51:07;21.60;59.60
66086;DHT22;52868;49.758;9.586;2022-09-09T17:53:41;21.60;59.60
66086;DHT22;52868;49.758;9.586;2022-09-09T17:56:09;21.50;59.60
66086;DHT22;52868;49.758;9.586;2022-09-09T17:58:35;21.50;59.70
66086;DHT22;52868;49.758;9.586;2022-09-09T18:01:06;21.50;59.70